Time;durP1;ratioP1;P1;durP2;ratioP2;P2;SDS_P1;SDS_P2;PMS_P1;PMS_P2;Temp;Humidity;BMP_temperature;BMP_pressure;BME280_temperature;BME280_humidity;BME280_pressure;Samples;Min_cycle;Max_cycle;Signal;HPM_P1;HPM_P2
2022/12/09 00:01:12;;;;;;;3.17;2.92;;;20.70;71.90;;;;;;5043629;28;20192;-46
2022/12/09 00:03:41;;;;;;;3.65;3.08;;;20.70;71.70;;;;;;5041148;28;20660;-47
2022/12/09 00:06:09;;;;;;;3.70;3.35;;;20.80;71.70;;;;;;5051083;28;20218;-41
2022/12/09 00:08:36;;;;;;;2.90;2.70;;;20.80;71.60;;;;;;5048768;28;20202;-37
2022/12/09 00:11:03;;;;;;;3.17;2.88;;;20.80;71.30;;;;;;5042321;28;20203;-32
2022/12/09 00:13:30;;;;;;;3.20;3.00;;;20.90;71.20;;;;;;5051862;28;20195;-33
2022/12/09 00:15:56;;;;;;;3.90;3.20;;;20.90;71.50;;;;;;5045934;28;20241;-39
2022/12/09 00:18:23;;;;;;;4.05;2.83;;;20.90;71.10;;;;;;5041489;28;20195;-37
2022/12/09 00:20:51;;;;;;;2.75;2.55;;;20.90;71.10;;;;;;5047830;28;20223;-34
2022/12/09 00:23:18;;;;;;;3.00;2.70;;;20.90;72.00;;;;;;5049171;28;20617;-41
2022/12/09 00:25:45;;;;;;;4.03;3.63;;;20.90;71.20;;;;;;5044563;28;20655;-35
2022/12/09 00:28:11;;;;;;;2.60;2.40;;;20.90;71.10;;;;;;5040502;28;20223;-37
2022/12/09 00:30:38;;;;;;;3.83;2.90;;;20.90;71.40;;;;;;5038354;28;20192;-36
2022/12/09 00:33:05;;;;;;;2.70;2.50;;;20.80;71.60;;;;;;5040541;28;20536;-35
2022/12/09 00:35:32;;;;;;;3.03;2.78;;;20.80;71.50;;;;;;5050487;28;20202;-39
2022/12/09 00:38:00;;;;;;;3.47;3.17;;;20.90;71.50;;;;;;5051269;28;20198;-39
2022/12/09 00:40:26;;;;;;;3.75;3.20;;;20.90;71.40;;;;;;5045410;28;20673;-37
2022/12/09 00:42:53;;;;;;;2.60;2.40;;;20.80;71.40;;;;;;5041131;28;20211;-33
2022/12/09 00:45:20;;;;;;;2.85;2.65;;;20.80;71.30;;;;;;5048889;28;20218;-41
2022/12/09 00:47:46;;;;;;;3.38;2.45;;;20.80;71.30;;;;;;5040880;28;20202;-33
2022/12/09 00:50:13;;;;;;;2.63;2.42;;;20.80;71.40;;;;;;5047841;28;20226;-38
2022/12/09 00:52:40;;;;;;;3.05;2.75;;;20.80;71.20;;;;;;5048382;28;20199;-34
2022/12/09 00:55:09;;;;;;;3.70;2.90;;;20.80;71.30;;;;;;5044410;28;20567;-36
2022/12/09 00:57:35;;;;;;;2.90;2.70;;;20.70;71.10;;;;;;5051153;28;20194;-35
2022/12/09 01:00:03;;;;;;;3.08;2.50;;;20.80;71.20;;;;;;5048765;28;20187;-40
2022/12/09 01:02:30;;;;;;;4.00;2.95;;;20.80;71.10;;;;;;5036950;28;20191;-35
2022/12/09 01:04:57;;;;;;;2.80;2.60;;;20.80;71.10;;;;;;5050733;28;20211;-37
2022/12/09 01:07:23;;;;;;;2.60;2.40;;;20.70;71.00;;;;;;5051363;28;20450;-34
2022/12/09 01:09:50;;;;;;;11.05;3.40;;;20.70;71.00;;;;;;5038593;28;20195;-33
2022/12/09 01:12:18;;;;;;;2.90;2.60;;;20.70;71.10;;;;;;5050557;28;20182;-36
2022/12/09 01:14:45;;;;;;;2.97;2.70;;;20.70;71.10;;;;;;5049761;28;20209;-39
2022/12/09 01:17:11;;;;;;;2.88;2.58;;;20.70;71.10;;;;;;5038647;28;20666;-37
2022/12/09 01:19:39;;;;;;;2.55;2.35;;;20.70;71.10;;;;;;5047734;28;20215;-34
2022/12/09 01:22:06;;;;;;;3.88;2.67;;;20.70;71.10;;;;;;5041141;28;20191;-34
2022/12/09 01:24:33;;;;;;;3.08;2.78;;;20.70;71.00;;;;;;5043788;28;20220;-39
2022/12/09 01:26:59;;;;;;;2.15;2.05;;;20.70;71.00;;;;;;5047297;28;20198;-35
2022/12/09 01:29:27;;;;;;;3.08;2.40;;;20.70;71.00;;;;;;5050630;28;20191;-47
2022/12/09 01:31:54;;;;;;;2.65;2.45;;;20.70;71.10;;;;;;5038240;28;20563;-41
2022/12/09 01:34:21;;;;;;;3.17;2.80;;;20.70;71.00;;;;;;5047199;28;20191;-34
2022/12/09 01:36:48;;;;;;;3.55;2.85;;;20.70;71.20;;;;;;5050859;28;20199;-33
2022/12/09 01:39:16;;;;;;;2.80;2.60;;;20.70;71.00;;;;;;5046274;28;20203;-42
2022/12/09 01:41:42;;;;;;;4.15;2.60;;;20.70;71.10;;;;;;5042935;28;20187;-34
2022/12/09 01:44:18;;;;;;;2.67;2.42;;;20.70;71.10;;;;;;5049777;28;20195;-40
2022/12/09 01:46:47;;;;;;;2.80;2.60;;;20.70;70.90;;;;;;5044306;28;20245;-38
2022/12/09 01:49:19;;;;;;;3.88;2.55;;;20.70;70.90;;;;;;5046654;28;20206;-35
2022/12/09 01:51:51;;;;;;;2.70;2.50;;;20.60;70.80;;;;;;5054256;28;20555;-45
2022/12/09 01:54:19;;;;;;;2.57;2.37;;;20.70;70.90;;;;;;5051659;28;20457;-39
2022/12/09 01:56:45;;;;;;;2.78;2.58;;;20.60;70.80;;;;;;5043076;28;20829;-36
2022/12/09 01:59:14;;;;;;;2.83;2.35;;;20.70;71.00;;;;;;5047123;28;20192;-36
2022/12/09 02:01:44;;;;;;;2.08;1.88;;;20.70;70.90;;;;;;5039183;28;20200;-37
2022/12/09 02:04:12;;;;;;;2.33;2.13;;;20.70;70.70;;;;;;5051580;28;20203;-39
2022/12/09 02:06:39;;;;;;;2.28;2.08;;;20.70;71.00;;;;;;5050872;28;20613;-38
2022/12/09 02:09:06;;;;;;;2.38;2.17;;;20.70;70.90;;;;;;5052801;28;20195;-41
2022/12/09 02:11:42;;;;;;;2.10;2.00;;;20.70;70.90;;;;;;5043371;28;20647;-34
2022/12/09 02:14:16;;;;;;;2.70;2.22;;;20.60;70.80;;;;;;5047852;28;20191;-36
2022/12/09 02:16:52;;;;;;;2.35;1.98;;;20.60;70.80;;;;;;5041259;28;20199;-33
2022/12/09 02:19:34;;;;;;;2.40;2.20;;;20.60;70.90;;;;;;5052765;28;20229;-35
2022/12/09 02:22:01;;;;;;;2.67;2.28;;;20.60;70.80;;;;;;5042991;28;20203;-35
2022/12/09 02:24:38;;;;;;;2.67;2.42;;;20.70;71.00;;;;;;5045434;28;20201;-43
2022/12/09 02:27:12;;;;;;;2.90;2.60;;;20.70;70.80;;;;;;5049105;28;20231;-37
2022/12/09 02:30:00;;;;;;;2.75;2.55;;;20.60;70.70;;;;;;5054227;28;20642;-37
2022/12/09 02:32:51;;;;;;;2.83;2.60;;;20.60;70.80;;;;;;5047626;28;20190;-37
2022/12/09 02:35:23;;;;;;;2.40;2.20;;;20.60;70.80;;;;;;5047575;28;20210;-39
2022/12/09 02:37:56;;;;;;;2.90;2.30;;;20.60;70.80;;;;;;5052485;28;20199;-33
2022/12/09 02:40:27;;;;;;;2.40;2.20;;;20.70;70.80;;;;;;5045013;28;20196;-36
2022/12/09 02:42:55;;;;;;;2.70;1.85;;;20.60;70.70;;;;;;5044558;28;20200;-39
2022/12/09 02:45:24;;;;;;;5.70;2.38;;;20.70;70.80;;;;;;5047027;28;20226;-43
2022/12/09 02:47:53;;;;;;;2.42;1.98;;;20.60;70.80;;;;;;5049575;28;20187;-36
2022/12/09 02:50:25;;;;;;;2.45;2.25;;;20.60;70.80;;;;;;5044745;28;20203;-35
2022/12/09 02:52:54;;;;;;;2.53;2.33;;;20.60;70.90;;;;;;5051439;28;20191;-36
2022/12/09 02:55:22;;;;;;;2.42;2.22;;;20.60;70.80;;;;;;5044613;28;20606;-40
2022/12/09 02:57:54;;;;;;;2.30;2.10;;;20.60;70.80;;;;;;5051627;28;20183;-36
2022/12/09 03:00:21;;;;;;;2.35;2.15;;;20.60;70.80;;;;;;5050527;28;20195;-38
2022/12/09 03:02:54;;;;;;;2.38;2.17;;;20.60;70.60;;;;;;5043652;28;20187;-35
2022/12/09 03:05:30;;;;;;;1.90;1.70;;;20.60;70.60;;;;;;5047958;28;20206;-37
2022/12/09 03:08:06;;;;;;;1.85;1.65;;;20.60;70.70;;;;;;5045796;28;20190;-38
2022/12/09 03:10:39;;;;;;;2.78;2.28;;;20.60;70.70;;;;;;5047601;28;20199;-34
2022/12/09 03:13:12;;;;;;;3.08;2.55;;;20.60;70.60;;;;;;5052661;28;20187;-32
2022/12/09 03:15:42;;;;;;;2.63;2.25;;;20.60;70.70;;;;;;5045510;28;20204;-33
2022/12/09 03:18:13;;;;;;;2.50;1.60;;;20.60;70.60;;;;;;5042988;28;20207;-34
2022/12/09 03:20:42;;;;;;;2.17;1.98;;;20.60;70.80;;;;;;5045868;28;20218;-35
2022/12/09 03:23:13;;;;;;;1.75;1.45;;;20.60;70.70;;;;;;5048858;28;20195;-42
2022/12/09 03:25:46;;;;;;;2.15;1.95;;;20.60;70.80;;;;;;5050332;28;20691;-34
2022/12/09 03:28:18;;;;;;;1.90;1.70;;;20.60;70.80;;;;;;5053367;28;20187;-35
2022/12/09 03:30:46;;;;;;;2.85;2.00;;;20.60;70.70;;;;;;5046111;28;20224;-39
2022/12/09 03:33:15;;;;;;;2.10;1.95;;;20.60;70.60;;;;;;5041568;28;20256;-39
2022/12/09 03:35:49;;;;;;;2.45;2.10;;;20.60;70.60;;;;;;5048518;28;20195;-36
2022/12/09 03:38:19;;;;;;;2.35;2.15;;;20.60;70.60;;;;;;5052813;28;20192;-36
2022/12/09 03:40:50;;;;;;;1.83;1.63;;;20.60;70.60;;;;;;5049224;28;20206;-40
2022/12/09 03:43:22;;;;;;;2.25;2.05;;;20.60;70.70;;;;;;5042480;28;20206;-33
2022/12/09 03:45:49;;;;;;;2.63;1.92;;;20.60;70.60;;;;;;5048728;28;20220;-34
2022/12/09 03:48:16;;;;;;;1.67;1.58;;;20.60;70.60;;;;;;5052234;28;20191;-35
2022/12/09 03:50:50;;;;;;;2.33;2.20;;;20.60;70.60;;;;;;5049489;28;20188;-34
2022/12/09 03:53:21;;;;;;;2.80;2.33;;;20.60;70.70;;;;;;5050694;28;20190;-37
2022/12/09 03:55:52;;;;;;;2.00;1.80;;;20.60;70.60;;;;;;5042507;28;20207;-37
2022/12/09 03:58:19;;;;;;;2.40;2.20;;;20.60;70.60;;;;;;5052327;28;20198;-37
2022/12/09 04:00:48;;;;;;;4.55;2.30;;;20.60;70.60;;;;;;5047079;28;20206;-36
2022/12/09 04:03:16;;;;;;;2.58;2.35;;;20.60;70.60;;;;;;5045080;28;20195;-38
2022/12/09 04:05:46;;;;;;;2.40;2.00;;;20.60;70.50;;;;;;5048348;28;20214;-33
2022/12/09 04:08:12;;;;;;;1.95;1.85;;;20.70;70.50;;;;;;5051718;28;20718;-36
2022/12/09 04:10:39;;;;;;;2.10;1.90;;;20.70;70.40;;;;;;5044020;28;20195;-35
2022/12/09 04:13:06;;;;;;;1.85;1.42;;;20.60;70.40;;;;;;5045580;28;20199;-39
2022/12/09 04:15:33;;;;;;;2.15;1.95;;;20.60;70.60;;;;;;5047160;28;20203;-38
2022/12/09 04:17:59;;;;;;;2.15;1.95;;;20.50;70.40;;;;;;5043690;28;20192;-34
2022/12/09 04:20:26;;;;;;;1.70;1.60;;;20.50;70.40;;;;;;5048517;28;20691;-38
2022/12/09 04:22:56;;;;;;;1.63;1.52;;;20.40;70.40;;;;;;5048031;28;20199;-34
2022/12/09 04:25:22;;;;;;;2.17;1.98;;;20.40;70.60;;;;;;5048445;28;20196;-39
2022/12/09 04:27:49;;;;;;;1.77;1.63;;;20.30;70.80;;;;;;5050216;28;20218;-39
2022/12/09 04:30:16;;;;;;;2.35;2.05;;;20.40;70.90;;;;;;5049692;28;20203;-39
2022/12/09 04:32:43;;;;;;;2.83;2.35;;;20.40;70.90;;;;;;5043330;28;20191;-38
2022/12/09 04:35:10;;;;;;;2.35;2.15;;;20.40;71.60;;;;;;5049344;28;20241;-37
2022/12/09 04:37:37;;;;;;;2.30;1.95;;;20.50;70.70;;;;;;5050957;28;20222;-35
2022/12/09 04:40:05;;;;;;;2.80;1.70;;;20.50;70.60;;;;;;5048245;28;20186;-39
2022/12/09 04:42:32;;;;;;;1.70;1.52;;;20.60;70.60;;;;;;5042804;28;20710;-43
2022/12/09 04:44:59;;;;;;;2.60;2.05;;;20.60;70.60;;;;;;5049607;28;20199;-35
2022/12/09 04:47:26;;;;;;;2.13;1.92;;;20.60;70.60;;;;;;5038983;28;20218;-37
2022/12/09 04:49:52;;;;;;;2.00;1.80;;;20.60;70.60;;;;;;5039867;28;20191;-43
2022/12/09 04:52:19;;;;;;;2.30;2.10;;;20.60;70.60;;;;;;5045207;28;20191;-35
2022/12/09 04:54:46;;;;;;;2.10;1.55;;;20.70;70.60;;;;;;5039242;28;20207;-35
2022/12/09 04:57:14;;;;;;;1.98;1.88;;;20.70;70.50;;;;;;5049764;28;20198;-38
2022/12/09 04:59:41;;;;;;;1.73;1.63;;;20.80;70.40;;;;;;5050963;28;20663;-39
2022/12/09 05:02:07;;;;;;;1.60;1.50;;;20.80;70.40;;;;;;5036098;28;20214;-36
2022/12/09 05:04:34;;;;;;;1.77;1.67;;;20.80;70.30;;;;;;5046264;28;20202;-36
2022/12/09 05:07:01;;;;;;;1.92;1.83;;;20.80;70.30;;;;;;5051045;28;20219;-38
2022/12/09 05:09:28;;;;;;;1.90;1.80;;;20.80;70.30;;;;;;5044471;28;20187;-37
2022/12/09 05:11:56;;;;;;;1.70;1.60;;;20.80;70.40;;;;;;5049889;28;20191;-38
2022/12/09 05:14:24;;;;;;;2.58;2.33;;;20.70;70.30;;;;;;5048177;28;20202;-40
2022/12/09 05:16:51;;;;;;;1.85;1.75;;;20.70;71.10;;;;;;5041747;28;20199;-41
2022/12/09 05:19:18;;;;;;;1.75;1.48;;;20.70;70.40;;;;;;5047317;28;20215;-35
2022/12/09 05:21:45;;;;;;;2.17;2.08;;;20.70;70.50;;;;;;5050775;28;20196;-49
2022/12/09 05:24:11;;;;;;;1.83;1.60;;;20.60;70.30;;;;;;5043382;28;20278;-39
2022/12/09 05:26:38;;;;;;;2.08;1.88;;;20.70;70.40;;;;;;5047352;28;20790;-36
2022/12/09 05:29:05;;;;;;;2.08;1.88;;;20.70;70.30;;;;;;5042362;28;20202;-37
2022/12/09 05:31:33;;;;;;;1.70;1.60;;;20.70;70.40;;;;;;5043378;28;20210;-45
2022/12/09 05:34:00;;;;;;;1.90;1.80;;;20.60;70.30;;;;;;5046574;28;20655;-39
2022/12/09 05:36:27;;;;;;;1.80;1.70;;;20.60;70.40;;;;;;5049304;28;20203;-34
2022/12/09 05:38:55;;;;;;;1.60;1.50;;;20.60;70.40;;;;;;5052317;28;20199;-42
2022/12/09 05:41:22;;;;;;;1.50;1.40;;;20.60;70.40;;;;;;5053174;28;20198;-43
2022/12/09 05:43:49;;;;;;;2.10;2.00;;;20.60;70.40;;;;;;5046435;28;20198;-36
2022/12/09 05:46:16;;;;;;;2.00;1.80;;;20.60;70.30;;;;;;5045333;28;20231;-38
2022/12/09 05:48:44;;;;;;;1.83;1.67;;;20.60;70.60;;;;;;5052034;28;20214;-37
2022/12/09 05:51:15;;;;;;;1.42;1.30;;;20.60;70.60;;;;;;5053388;28;20190;-36
2022/12/09 05:53:42;;;;;;;2.00;1.50;;;20.50;70.50;;;;;;5054191;28;20188;-40
2022/12/09 05:56:09;;;;;;;1.73;1.63;;;20.50;70.60;;;;;;5057195;28;20199;-35
2022/12/09 05:58:36;;;;;;;1.98;1.88;;;20.50;70.60;;;;;;5049479;28;20200;-38
2022/12/09 06:01:06;;;;;;;1.73;1.60;;;20.50;70.60;;;;;;5043345;28;20196;-34
2022/12/09 06:03:33;;;;;;;2.42;1.70;;;20.50;70.70;;;;;;5048562;28;20202;-35
2022/12/09 06:06:05;;;;;;;1.92;1.80;;;20.50;70.70;;;;;;5054432;28;20194;-41
2022/12/09 06:08:31;;;;;;;1.90;1.80;;;20.50;70.80;;;;;;5051203;28;20195;-36
2022/12/09 06:10:58;;;;;;;1.50;1.40;;;20.50;70.70;;;;;;5045858;28;20199;-39
2022/12/09 06:13:25;;;;;;;1.90;1.80;;;20.50;70.60;;;;;;5048690;28;20195;-37
2022/12/09 06:15:52;;;;;;;1.52;1.42;;;20.60;70.60;;;;;;5051141;28;20659;-39
2022/12/09 06:18:19;;;;;;;1.92;1.83;;;20.60;70.60;;;;;;5050734;28;22225;-36
2022/12/09 06:20:46;;;;;;;1.88;1.60;;;20.60;71.40;;;;;;5048305;28;20729;-33
2022/12/09 06:23:14;;;;;;;1.77;1.40;;;20.60;70.60;;;;;;5050496;28;20567;-37
2022/12/09 06:25:44;;;;;;;1.80;1.67;;;20.60;70.60;;;;;;5045017;28;20206;-39
2022/12/09 06:28:10;;;;;;;1.58;1.48;;;20.60;70.60;;;;;;5052392;28;20246;-40
2022/12/09 06:30:37;;;;;;;1.92;1.73;;;20.50;70.60;;;;;;5041139;28;20195;-36
2022/12/09 06:33:04;;;;;;;1.83;1.73;;;20.60;70.70;;;;;;5053730;28;20202;-33
2022/12/09 06:35:31;;;;;;;2.00;1.63;;;20.60;70.70;;;;;;5051520;28;20199;-36
2022/12/09 06:37:58;;;;;;;1.73;1.63;;;20.60;70.70;;;;;;5050336;28;20563;-35
2022/12/09 06:40:26;;;;;;;1.40;1.23;;;20.60;70.70;;;;;;5052198;28;20195;-37
2022/12/09 06:42:53;;;;;;;1.55;1.45;;;20.60;70.60;;;;;;5040717;28;20203;-38
2022/12/09 06:45:20;;;;;;;1.98;1.80;;;20.60;70.60;;;;;;5050094;28;20187;-36
2022/12/09 06:47:47;;;;;;;2.10;1.60;;;20.60;70.60;;;;;;5042623;28;20738;-38
2022/12/09 06:50:15;;;;;;;1.30;1.20;;;20.60;70.70;;;;;;5050341;28;20237;-33
2022/12/09 06:52:41;;;;;;;2.13;1.55;;;20.60;70.80;;;;;;5047448;28;20195;-33
2022/12/09 06:55:09;;;;;;;1.80;1.60;;;20.50;70.70;;;;;;5051686;28;20183;-32
2022/12/09 06:57:37;;;;;;;1.45;1.33;;;20.50;70.70;;;;;;5050204;28;20207;-40
2022/12/09 07:00:05;;;;;;;1.50;1.40;;;20.50;70.80;;;;;;5046796;28;20196;-37
2022/12/09 07:02:33;;;;;;;1.58;1.48;;;20.50;70.80;;;;;;5041940;28;20206;-35
2022/12/09 07:05:00;;;;;;;1.40;1.30;;;20.50;70.70;;;;;;5047696;28;20191;-38
2022/12/09 07:07:26;;;;;;;1.77;1.67;;;20.50;70.70;;;;;;5049147;28;20270;-42
2022/12/09 07:09:53;;;;;;;1.50;1.40;;;20.50;70.70;;;;;;5044932;28;20199;-42
2022/12/09 07:12:20;;;;;;;1.70;1.60;;;20.50;70.70;;;;;;5052885;28;20202;-35
2022/12/09 07:14:48;;;;;;;1.85;1.75;;;20.50;70.80;;;;;;5049213;28;20206;-36
2022/12/09 07:17:16;;;;;;;1.52;1.42;;;20.50;70.70;;;;;;5044253;28;20195;-39
2022/12/09 07:19:42;;;;;;;1.67;1.58;;;20.50;70.80;;;;;;5047242;28;20242;-37
2022/12/09 07:22:09;;;;;;;1.67;1.58;;;20.50;70.80;;;;;;5047003;28;20196;-37
2022/12/09 07:24:37;;;;;;;1.80;1.58;;;20.50;70.90;;;;;;5044914;28;20189;-35
2022/12/09 07:27:04;;;;;;;1.50;1.40;;;20.50;70.90;;;;;;5048920;28;20226;-43
2022/12/09 07:29:31;;;;;;;1.50;1.33;;;20.40;70.90;;;;;;5050949;28;20199;-38
2022/12/09 07:31:59;;;;;;;1.60;1.50;;;20.40;70.90;;;;;;5039958;28;20187;-35
2022/12/09 07:34:26;;;;;;;1.20;1.10;;;20.40;71.00;;;;;;5047425;28;20199;-36
2022/12/09 07:36:54;;;;;;;2.13;1.73;;;20.40;70.90;;;;;;5041127;28;20210;-38
2022/12/09 07:39:21;;;;;;;2.08;1.58;;;20.40;70.90;;;;;;5046175;28;20203;-38
2022/12/09 07:41:53;;;;;;;1.50;1.35;;;20.40;70.90;;;;;;5051282;28;20624;-43
2022/12/09 07:44:20;;;;;;;1.30;1.20;;;20.40;70.80;;;;;;5038073;28;20204;-39
2022/12/09 07:46:46;;;;;;;1.40;1.30;;;20.40;71.70;;;;;;5038934;28;20220;-39
2022/12/09 07:49:15;;;;;;;1.63;1.52;;;20.40;70.90;;;;;;5049657;28;20191;-34
2022/12/09 07:51:42;;;;;;;1.45;1.35;;;20.40;70.90;;;;;;5049634;28;20195;-35
2022/12/09 07:54:12;;;;;;;1.42;1.30;;;20.50;70.90;;;;;;5051588;28;20191;-39
2022/12/09 07:56:39;;;;;;;2.08;1.77;;;20.50;71.00;;;;;;5044296;28;20218;-41
2022/12/09 07:59:06;;;;;;;1.30;1.20;;;20.40;70.80;;;;;;5045500;28;20202;-34
2022/12/09 08:01:33;;;;;;;1.60;1.50;;;20.40;70.90;;;;;;5042083;28;20655;-41
2022/12/09 08:04:00;;;;;;;1.70;1.48;;;20.40;70.90;;;;;;5049440;28;20191;-35
2022/12/09 08:06:30;;;;;;;1.60;1.50;;;20.50;71.00;;;;;;5044632;28;20607;-34
2022/12/09 08:08:58;;;;;;;1.75;1.33;;;20.50;70.90;;;;;;5040347;28;20206;-40
2022/12/09 08:11:28;;;;;;;1.90;1.80;;;20.40;70.90;;;;;;5039773;28;20195;-35
2022/12/09 08:13:56;;;;;;;1.50;1.40;;;20.40;70.90;;;;;;5038554;28;20187;-39
2022/12/09 08:16:24;;;;;;;1.35;1.25;;;20.40;70.90;;;;;;5039788;28;20219;-39
2022/12/09 08:18:52;;;;;;;1.40;1.23;;;20.40;70.90;;;;;;5051522;28;20198;-37
2022/12/09 08:21:21;;;;;;;1.70;1.60;;;20.40;70.90;;;;;;5046181;28;20199;-47
2022/12/09 08:23:49;;;;;;;1.70;1.60;;;20.40;70.80;;;;;;5045367;28;20199;-36
2022/12/09 08:26:18;;;;;;;1.40;1.30;;;20.50;70.90;;;;;;5050629;28;20199;-38
2022/12/09 08:28:45;;;;;;;1.52;1.30;;;20.50;70.90;;;;;;5045558;28;20307;-42
2022/12/09 08:31:14;;;;;;;1.60;1.50;;;20.50;70.80;;;;;;5045289;28;20197;-40
2022/12/09 08:33:41;;;;;;;1.50;1.40;;;20.50;70.90;;;;;;5050926;28;20194;-39
2022/12/09 08:36:11;;;;;;;5.55;1.95;;;20.50;70.80;;;;;;5046901;28;20281;-38
2022/12/09 08:38:38;;;;;;;9.48;2.25;;;20.60;71.70;;;;;;5034319;28;20195;-39
2022/12/09 08:41:10;;;;;;;1.85;1.50;;;20.60;71.40;;;;;;5043444;28;20202;-44
2022/12/09 08:43:38;;;;;;;3.60;1.25;;;20.60;71.50;;;;;;5045645;28;20686;-40
2022/12/09 08:46:04;;;;;;;2.17;1.60;;;20.60;72.40;;;;;;5043313;28;20198;-38
2022/12/09 08:48:31;;;;;;;1.67;1.58;;;20.60;71.70;;;;;;5048213;28;20496;-40
2022/12/09 08:50:58;;;;;;;5.80;1.63;;;20.70;72.20;;;;;;5047925;28;20198;-37
2022/12/09 08:53:24;;;;;;;1.73;1.50;;;20.60;72.00;;;;;;5044253;28;20195;-39
2022/12/09 08:55:51;;;;;;;1.40;1.30;;;20.60;72.20;;;;;;5051088;28;20435;-43
2022/12/09 08:58:19;;;;;;;1.80;1.10;;;20.60;72.30;;;;;;5041247;28;20199;-36
2022/12/09 09:00:46;;;;;;;1.90;1.70;;;20.60;72.40;;;;;;5038425;28;20203;-37
2022/12/09 09:03:12;;;;;;;1.63;1.52;;;20.60;72.60;;;;;;5054253;28;20198;-39
2022/12/09 09:05:39;;;;;;;1.77;1.50;;;20.60;72.70;;;;;;5047614;28;20199;-45
2022/12/09 09:08:06;;;;;;;1.50;1.40;;;20.60;72.80;;;;;;5047327;28;20485;-36
2022/12/09 09:10:33;;;;;;;2.85;1.65;;;20.70;72.90;;;;;;5042718;28;20196;-38
2022/12/09 09:13:00;;;;;;;2.42;1.92;;;20.60;72.90;;;;;;5046974;28;20206;-37
2022/12/09 09:15:28;;;;;;;1.57;1.47;;;20.50;73.10;;;;;;5044829;28;20222;-39
2022/12/09 09:17:54;;;;;;;5.35;1.35;;;20.40;73.20;;;;;;5041366;28;20834;-39
2022/12/09 09:20:21;;;;;;;1.70;1.45;;;20.40;73.40;;;;;;5045133;28;20211;-38
2022/12/09 09:22:48;;;;;;;5.75;1.70;;;20.40;73.60;;;;;;5050499;28;20569;-39
2022/12/09 09:25:14;;;;;;;5.60;1.40;;;20.50;73.90;;;;;;5046196;28;20196;-37
2022/12/09 09:27:41;;;;;;;1.67;1.42;;;20.50;73.60;;;;;;5047656;28;22150;-44
2022/12/09 09:30:09;;;;;;;1.85;1.70;;;20.50;73.50;;;;;;5040197;28;20198;-43
2022/12/09 09:32:37;;;;;;;1.83;1.73;;;20.50;73.70;;;;;;5040985;28;20191;-42
2022/12/09 09:35:04;;;;;;;2.33;1.90;;;20.50;73.50;;;;;;5037556;28;20204;-42
2022/12/09 09:37:31;;;;;;;4.60;2.63;;;20.60;73.40;;;;;;5042393;28;20203;-37
2022/12/09 09:39:58;;;;;;;3.35;2.30;;;20.60;73.20;;;;;;5044788;28;20196;-40
2022/12/09 09:42:35;;;;;;;2.88;2.67;;;20.60;73.20;;;;;;5046064;28;20210;-37
2022/12/09 09:45:04;;;;;;;2.10;2.00;;;20.60;73.10;;;;;;5044101;28;20198;-37
2022/12/09 09:47:39;;;;;;;4.13;3.40;;;20.60;73.00;;;;;;5045279;28;21031;-43
2022/12/09 09:50:22;;;;;;;3.77;2.90;;;20.60;72.90;;;;;;5045627;28;20461;-43
2022/12/09 09:52:52;;;;;;;2.97;2.55;;;20.70;72.90;;;;;;5048011;28;20488;-37
2022/12/09 09:55:28;;;;;;;5.47;3.35;;;20.70;72.90;;;;;;5045653;28;20199;-41
2022/12/09 09:58:03;;;;;;;4.10;3.70;;;20.70;72.90;;;;;;5048980;28;20643;-46
2022/12/09 10:00:35;;;;;;;3.90;3.50;;;20.60;72.70;;;;;;5040872;28;22417;-44
2022/12/09 10:03:09;;;;;;;4.75;2.95;;;20.60;73.50;;;;;;5042588;28;20602;-37
2022/12/09 10:05:43;;;;;;;5.20;3.13;;;20.60;72.80;;;;;;5042109;28;20191;-45
2022/12/09 10:08:26;;;;;;;4.55;3.20;;;20.60;72.80;;;;;;5048142;28;20557;-36
2022/12/09 10:11:04;;;;;;;3.30;3.00;;;20.60;72.70;;;;;;5037914;28;20187;-39
2022/12/09 10:13:44;;;;;;;4.10;3.70;;;20.60;72.60;;;;;;5042663;28;20222;-38
2022/12/09 10:16:15;;;;;;;3.73;3.33;;;20.60;72.40;;;;;;5044247;28;20469;-44
2022/12/09 10:19:00;;;;;;;3.63;3.33;;;20.60;72.40;;;;;;5044540;28;20463;-46
2022/12/09 10:21:29;;;;;;;3.77;3.23;;;20.60;72.30;;;;;;5052413;28;20453;-42
2022/12/09 10:23:58;;;;;;;10.60;7.57;;;20.60;72.30;;;;;;5043343;28;20829;-32
2022/12/09 10:26:28;;;;;;;11.50;8.00;;;20.60;72.60;;;;;;5047057;28;20464;-32
2022/12/09 10:29:02;;;;;;;10.77;7.43;;;20.50;73.20;;;;;;5046175;28;20238;-39
2022/12/09 10:31:29;;;;;;;9.00;7.57;;;20.40;72.90;;;;;;5044246;28;20468;-36
2022/12/09 10:33:57;;;;;;;9.32;6.72;;;20.40;73.00;;;;;;5044524;28;20203;-35
2022/12/09 10:36:26;;;;;;;8.02;7.25;;;20.50;73.10;;;;;;5047845;28;20198;-32
2022/12/09 10:38:52;;;;;;;12.57;8.30;;;20.40;73.70;;;;;;5045550;28;20203;-39
2022/12/09 10:44:25;;;;;;;18.40;11.10;;;20.40;73.60;;;;;;5049191;28;20662;-36
2022/12/09 10:46:58;;;;;;;16.20;14.70;;;20.50;67.40;;;;;;5043122;28;20540;-32
2022/12/09 10:49:26;;;;;;;17.08;15.55;;;19.80;60.40;;;;;;5041080;28;20216;-48
2022/12/09 10:51:54;;;;;;;18.52;16.77;;;19.10;57.40;;;;;;5044418;28;20196;-51
2022/12/09 10:54:30;;;;;;;18.88;17.00;;;18.20;56.80;;;;;;5052467;28;20222;-46
2022/12/09 10:57:16;;;;;;;14.05;12.68;;;17.70;57.10;;;;;;5044514;28;20199;-43
2022/12/09 10:59:56;;;;;;;11.05;9.77;;;18.40;59.50;;;;;;5045272;28;20195;-40
2022/12/09 11:02:23;;;;;;;10.38;9.38;;;19.30;59.50;;;;;;5038182;28;20197;-44
2022/12/09 11:04:51;;;;;;;8.43;7.60;;;20.00;59.70;;;;;;5051983;28;20198;-43
2022/12/09 11:07:21;;;;;;;6.75;5.63;;;20.50;59.70;;;;;;5050970;28;20187;-42
2022/12/09 11:09:50;;;;;;;7.20;6.15;;;20.70;60.00;;;;;;5050818;28;20288;-43
2022/12/09 11:12:29;;;;;;;6.30;5.63;;;20.90;60.40;;;;;;5048207;28;20662;-40
2022/12/09 11:14:58;;;;;;;5.05;4.20;;;21.00;61.10;;;;;;5053095;28;20201;-39
2022/12/09 11:17:28;;;;;;;4.78;4.38;;;21.10;61.50;;;;;;5041621;28;20195;-39
2022/12/09 11:20:10;;;;;;;4.63;4.20;;;21.20;61.90;;;;;;5044792;28;20203;-39
2022/12/09 11:22:38;;;;;;;11.50;6.85;;;21.30;62.30;;;;;;5045859;28;20192;-38
2022/12/09 11:25:20;;;;;;;6.25;5.65;;;21.30;63.40;;;;;;5048011;28;20614;-39
2022/12/09 11:27:51;;;;;;;7.25;5.50;;;21.20;63.90;;;;;;5045318;28;20218;-38
2022/12/09 11:30:19;;;;;;;6.00;5.40;;;21.30;65.10;;;;;;5052578;28;20223;-39
2022/12/09 11:32:59;;;;;;;6.13;5.55;;;21.30;64.70;;;;;;5046992;28;20659;-42
2022/12/09 11:35:33;;;;;;;5.07;4.67;;;21.30;65.20;;;;;;5036483;28;20192;-39
2022/12/09 11:38:14;;;;;;;5.40;5.00;;;21.30;65.80;;;;;;5043345;28;20465;-42
2022/12/09 11:40:40;;;;;;;6.10;4.90;;;21.30;65.90;;;;;;5052523;28;20610;-40
2022/12/09 11:43:07;;;;;;;6.00;5.40;;;21.30;66.10;;;;;;5042512;28;20984;-40
2022/12/09 11:45:37;;;;;;;7.35;5.88;;;21.20;66.20;;;;;;5047205;28;20191;-41
2022/12/09 11:48:06;;;;;;;4.75;4.28;;;21.20;66.70;;;;;;5039416;28;20296;-42
2022/12/09 11:50:40;;;;;;;5.97;5.30;;;21.20;66.90;;;;;;5045778;28;20200;-40
2022/12/09 11:53:19;;;;;;;9.88;9.07;;;21.20;67.20;;;;;;5045588;28;20220;-40
2022/12/09 11:55:48;;;;;;;8.68;7.88;;;21.10;69.80;;;;;;5046741;28;20203;-40
2022/12/09 11:58:20;;;;;;;9.67;8.70;;;21.00;68.70;;;;;;5049197;28;20196;-39
2022/12/09 12:00:52;;;;;;;15.38;14.05;;;20.80;68.50;;;;;;5048088;28;20596;-40
2022/12/09 12:03:21;;;;;;;10.52;9.63;;;20.60;66.80;;;;;;5040125;28;20650;-39
2022/12/09 12:05:52;;;;;;;10.52;9.38;;;20.60;67.70;;;;;;5049415;28;20194;-44
2022/12/09 12:08:25;;;;;;;9.90;9.10;;;20.70;67.60;;;;;;5045942;28;20215;-40
2022/12/09 12:10:56;;;;;;;9.82;8.93;;;20.80;67.90;;;;;;5040550;28;20610;-40
2022/12/09 12:13:27;;;;;;;10.13;9.23;;;20.80;68.20;;;;;;5026725;28;20594;-47
2022/12/09 12:16:04;;;;;;;9.10;8.30;;;20.70;68.20;;;;;;5038661;28;20199;-47
2022/12/09 12:18:36;;;;;;;7.43;6.83;;;20.90;68.30;;;;;;5048631;28;20444;-41
2022/12/09 12:21:20;;;;;;;9.18;8.48;;;20.90;68.30;;;;;;5049967;28;21046;-41
2022/12/09 12:24:14;;;;;;;8.00;7.07;;;21.00;68.40;;;;;;5045970;28;20229;-43
2022/12/09 12:26:49;;;;;;;7.80;7.10;;;21.00;68.40;;;;;;5050183;28;20191;-41
2022/12/09 12:29:24;;;;;;;6.90;6.28;;;21.10;68.20;;;;;;5050953;28;20566;-42
2022/12/09 12:32:09;;;;;;;6.47;6.00;;;21.20;68.20;;;;;;5043240;28;20194;-40
2022/12/09 12:34:42;;;;;;;6.53;5.90;;;21.20;68.20;;;;;;5048632;28;20622;-39
2022/12/09 12:37:26;;;;;;;6.40;5.80;;;21.30;68.20;;;;;;5051727;28;20433;-39
2022/12/09 12:40:02;;;;;;;6.22;5.63;;;21.40;68.20;;;;;;5044970;28;20830;-45
2022/12/09 12:46:15;;;;;;;6.93;5.90;;;21.40;68.10;;;;;;5050014;28;20231;-39
2022/12/09 12:48:26;;;;;;;5.70;5.20;;;21.50;68.20;;;;;;5046250;28;20468;-42
2022/12/09 12:51:04;;;;;;;7.33;5.87;;;21.50;68.20;;;;;;5046019;28;20492;-41
2022/12/09 12:53:40;;;;;;;4.70;4.33;;;21.50;68.20;;;;;;5049804;28;20959;-38
2022/12/09 12:56:11;;;;;;;4.60;4.30;;;21.50;68.30;;;;;;5045237;28;20943;-38
2022/12/09 12:58:58;;;;;;;4.90;4.47;;;21.50;68.30;;;;;;5051349;28;20446;-38
2022/12/09 13:01:29;;;;;;;5.50;4.83;;;21.50;68.40;;;;;;5041647;28;20462;-44
2022/12/09 13:04:07;;;;;;;4.70;4.30;;;21.40;68.30;;;;;;5040730;28;20477;-40